Time;durP1;ratioP1;P1;durP2;ratioP2;P2;SDS_P1;SDS_P2;PMS_P1;PMS_P2;Temp;Humidity;BMP_temperature;BMP_pressure;BME280_temperature;BME280_humidity;BME280_pressure;Samples;Min_cycle;Max_cycle;Signal;HPM_P1;HPM_P2
2022/11/03 00:01:45;;;;;;;7.40;2.38;;;13.00;99.90;;;;;;5085023;28;20123;-69
2022/11/03 00:04:12;;;;;;;13.27;2.65;;;13.00;99.90;;;;;;5083337;28;20123;-68
2022/11/03 00:06:39;;;;;;;5.68;1.58;;;12.90;99.90;;;;;;5094381;28;20414;-69
2022/11/03 00:09:07;;;;;;;12.35;2.50;;;12.90;99.90;;;;;;5083463;28;20016;-68
2022/11/03 00:11:34;;;;;;;11.20;2.08;;;13.00;99.90;;;;;;5081881;28;20021;-68
2022/11/03 00:14:01;;;;;;;9.48;2.08;;;13.00;99.90;;;;;;5081908;28;20025;-69
2022/11/03 00:16:26;;;;;;;8.38;1.60;;;12.90;99.90;;;;;;5090500;28;20569;-69
2022/11/03 00:18:53;;;;;;;14.15;3.15;;;12.90;99.90;;;;;;5085112;28;20095;-68
2022/11/03 00:21:18;;;;;;;14.32;2.50;;;12.90;99.90;;;;;;5084212;28;20024;-69
2022/11/03 00:23:45;;;;;;;9.60;2.05;;;12.90;99.90;;;;;;5087348;28;20031;-67
2022/11/03 00:26:16;;;;;;;7.90;2.05;;;12.90;99.90;;;;;;5091479;28;20028;-68
2022/11/03 00:28:47;;;;;;;14.43;2.90;;;12.90;99.90;;;;;;5090496;28;20020;-68
2022/11/03 00:31:15;;;;;;;8.35;2.17;;;12.90;99.90;;;;;;5078567;28;20093;-67
2022/11/03 00:33:42;;;;;;;7.57;1.52;;;12.80;99.90;;;;;;5087732;28;20028;-68
2022/11/03 00:36:11;;;;;;;9.52;2.03;;;12.90;99.90;;;;;;5085419;28;20455;-67
2022/11/03 00:38:36;;;;;;;11.70;2.10;;;12.80;99.90;;;;;;5086740;28;20028;-70
2022/11/03 00:41:04;;;;;;;10.13;1.75;;;12.90;99.90;;;;;;5089053;28;20028;-68
2022/11/03 00:43:31;;;;;;;8.52;2.70;;;12.80;99.90;;;;;;5082252;28;20032;-68
2022/11/03 00:45:57;;;;;;;11.20;1.95;;;12.80;99.90;;;;;;5085984;28;20099;-67
2022/11/03 00:48:29;;;;;;;8.23;2.10;;;12.80;99.90;;;;;;5085460;28;20044;-68
2022/11/03 00:51:08;;;;;;;9.13;2.03;;;12.90;99.90;;;;;;5086412;28;20055;-68
2022/11/03 00:53:36;;;;;;;8.77;2.10;;;12.80;99.90;;;;;;5088368;28;20069;-69
2022/11/03 00:56:02;;;;;;;9.43;1.88;;;12.80;99.90;;;;;;5085071;28;20390;-69
2022/11/03 00:58:29;;;;;;;10.38;1.85;;;12.80;99.90;;;;;;5091086;28;20111;-68
2022/11/03 01:01:09;;;;;;;8.73;1.95;;;12.80;99.90;;;;;;5093601;28;20024;-69
2022/11/03 01:03:36;;;;;;;15.07;2.05;;;12.80;99.90;;;;;;5074812;28;20037;-68
2022/11/03 01:08:50;;;;;;;9.60;2.13;;;12.80;99.90;;;;;;5088294;28;20067;-68
2022/11/03 01:14:03;;;;;;;13.13;2.70;;;12.80;99.90;;;;;;5087891;28;20031;-69
2022/11/03 01:16:30;;;;;;;11.30;2.45;;;12.70;99.90;;;;;;5081674;28;20026;-68
2022/11/03 01:18:55;;;;;;;10.30;1.77;;;12.70;99.90;;;;;;5077006;28;20417;-68
2022/11/03 01:21:21;;;;;;;10.75;2.10;;;12.70;99.90;;;;;;5085562;28;20067;-69
2022/11/03 01:23:47;;;;;;;12.32;2.53;;;12.80;99.90;;;;;;5078967;28;20150;-68
2022/11/03 01:26:13;;;;;;;9.32;2.10;;;12.80;99.90;;;;;;5081792;28;20051;-69
2022/11/03 01:28:41;;;;;;;8.18;1.55;;;12.80;99.90;;;;;;5084172;28;20028;-69
2022/11/03 01:31:10;;;;;;;8.43;1.95;;;12.80;99.90;;;;;;5084220;28;20405;-68
2022/11/03 01:33:37;;;;;;;16.77;2.65;;;12.80;99.90;;;;;;5083769;28;20028;-68
2022/11/03 01:36:02;;;;;;;14.25;2.35;;;12.80;99.90;;;;;;5094048;28;20103;-68
2022/11/03 01:38:33;;;;;;;14.48;2.50;;;12.80;99.90;;;;;;5080495;28;20105;-68
2022/11/03 01:40:59;;;;;;;17.90;2.80;;;12.80;99.90;;;;;;5089513;28;20443;-69
2022/11/03 01:43:27;;;;;;;12.13;2.30;;;12.70;99.90;;;;;;5077931;28;20064;-69
2022/11/03 01:46:10;;;;;;;4.28;1.50;;;12.70;99.90;;;;;;5093703;28;20045;-68
2022/11/03 01:48:40;;;;;;;10.30;2.15;;;12.70;99.90;;;;;;5086477;28;20214;-69
2022/11/03 01:51:09;;;;;;;13.85;2.22;;;12.70;99.90;;;;;;5090900;28;20851;-68
2022/11/03 01:53:37;;;;;;;9.05;2.70;;;12.80;99.90;;;;;;5082608;28;20056;-69
2022/11/03 01:56:03;;;;;;;10.35;1.67;;;12.80;99.90;;;;;;5086029;28;20351;-69
2022/11/03 01:58:33;;;;;;;10.93;1.95;;;12.90;99.90;;;;;;5087654;28;20130;-69
2022/11/03 02:01:00;;;;;;;9.52;2.30;;;12.90;99.90;;;;;;5089536;28;20099;-67
2022/11/03 02:03:34;;;;;;;8.73;1.80;;;12.90;99.90;;;;;;5089174;28;20028;-68
2022/11/03 02:06:02;;;;;;;10.07;2.15;;;13.00;99.90;;;;;;5092473;28;20015;-68
2022/11/03 02:08:37;;;;;;;8.50;1.83;;;13.00;99.90;;;;;;5088760;28;20016;-68
2022/11/03 02:12:05;;;;;;;8.25;2.22;;;13.00;99.90;;;;;;5090118;28;20073;-67
2022/11/03 02:13:49;;;;;;;12.32;2.05;;;13.00;99.90;;;;;;5088943;28;20345;-68
2022/11/03 02:16:15;;;;;;;16.27;3.60;;;13.00;99.90;;;;;;5088926;28;20073;-68
2022/11/03 02:18:41;;;;;;;9.93;2.70;;;13.00;99.90;;;;;;5086233;28;20056;-68
2022/11/03 02:21:30;;;;;;;9.98;2.00;;;13.00;99.90;;;;;;5090311;28;20031;-67
2022/11/03 02:24:01;;;;;;;9.60;1.77;;;13.00;99.90;;;;;;5083304;28;20059;-68
2022/11/03 02:26:27;;;;;;;11.38;1.75;;;12.90;99.90;;;;;;5088494;28;20101;-68
2022/11/03 02:28:53;;;;;;;7.63;1.75;;;12.90;99.90;;;;;;5080032;28;20059;-68
2022/11/03 02:31:40;;;;;;;14.27;2.55;;;12.90;99.90;;;;;;5088103;28;20024;-69
2022/11/03 02:34:15;;;;;;;11.88;2.10;;;12.90;99.90;;;;;;5086055;28;20473;-69
2022/11/03 02:36:48;;;;;;;9.23;1.60;;;12.90;99.90;;;;;;5088430;28;20586;-68
2022/11/03 02:39:40;;;;;;;13.45;2.33;;;13.00;99.90;;;;;;5088963;28;20121;-69
2022/11/03 02:42:08;;;;;;;12.88;1.77;;;12.90;99.90;;;;;;5080824;28;20055;-69
2022/11/03 02:44:36;;;;;;;9.05;1.85;;;12.90;99.90;;;;;;5078159;28;20472;-69
2022/11/03 02:47:08;;;;;;;9.10;2.10;;;12.90;99.90;;;;;;5091931;28;20127;-69
2022/11/03 02:49:49;;;;;;;7.00;2.83;;;12.90;99.90;;;;;;5088329;28;20031;-68
2022/11/03 02:52:40;;;;;;;6.05;1.63;;;12.90;99.90;;;;;;5080561;28;20032;-69
2022/11/03 02:55:25;;;;;;;14.15;2.13;;;12.90;99.90;;;;;;5088670;28;20016;-69
2022/11/03 02:58:04;;;;;;;11.73;2.42;;;12.80;99.90;;;;;;5083810;28;20134;-69
2022/11/03 03:00:35;;;;;;;10.23;1.67;;;12.80;99.90;;;;;;5088809;28;20032;-68
2022/11/03 03:03:36;;;;;;;12.32;2.40;;;12.80;99.90;;;;;;5090621;28;20123;-69
2022/11/03 03:06:09;;;;;;;13.63;2.33;;;12.80;99.90;;;;;;5088063;28;20041;-68
2022/11/03 03:08:39;;;;;;;19.30;4.32;;;12.70;99.90;;;;;;5091328;28;20028;-70
2022/11/03 03:11:05;;;;;;;13.30;3.35;;;12.70;99.90;;;;;;5091243;28;20016;-68
2022/11/03 03:13:31;;;;;;;15.77;2.40;;;12.70;99.90;;;;;;5090773;28;20593;-68
2022/11/03 03:16:05;;;;;;;9.25;1.73;;;12.70;99.90;;;;;;5086079;28;20024;-68
2022/11/03 03:18:43;;;;;;;12.65;2.35;;;12.70;99.90;;;;;;5089222;28;20081;-68
2022/11/03 03:21:15;;;;;;;15.05;2.67;;;12.60;99.90;;;;;;5090154;28;20027;-68
2022/11/03 03:23:48;;;;;;;10.95;1.75;;;12.60;99.90;;;;;;5083772;28;20032;-69
2022/11/03 03:26:30;;;;;;;12.40;2.20;;;12.60;99.90;;;;;;5084572;28;20128;-69
2022/11/03 03:28:58;;;;;;;;;;;12.50;99.90;;;;;;5089953;28;20032;-69
2022/11/03 03:31:27;;;;;;;10.82;2.10;;;12.50;99.90;;;;;;5090891;28;20301;-69
2022/11/03 03:33:57;;;;;;;9.77;2.08;;;12.40;99.90;;;;;;5092523;28;20020;-68
2022/11/03 03:36:25;;;;;;;8.40;1.67;;;12.40;99.90;;;;;;5092991;28;20056;-68
2022/11/03 03:38:58;;;;;;;15.80;2.38;;;12.40;99.90;;;;;;5095987;28;20028;-68
2022/11/03 03:41:25;;;;;;;12.35;2.38;;;12.40;99.90;;;;;;5095365;28;20032;-68
2022/11/03 03:43:58;;;;;;;10.63;2.13;;;12.50;99.90;;;;;;5096171;28;20044;-68
2022/11/03 03:46:28;;;;;;;12.25;1.98;;;12.50;99.90;;;;;;5095806;28;20444;-68
2022/11/03 03:48:53;;;;;;;10.27;2.20;;;12.50;99.90;;;;;;5096036;28;20028;-68
2022/11/03 03:51:23;;;;;;;13.45;2.38;;;12.60;99.90;;;;;;5095550;28;20107;-69
2022/11/03 03:53:51;;;;;;;11.85;1.77;;;12.60;99.90;;;;;;5095979;28;20028;-68
2022/11/03 03:56:41;;;;;;;12.93;2.42;;;12.70;99.90;;;;;;5095831;28;20085;-69
2022/11/03 03:59:07;;;;;;;9.48;2.17;;;12.70;99.90;;;;;;5095267;28;20032;-68
2022/11/03 04:01:33;;;;;;;13.77;1.80;;;12.70;99.90;;;;;;5095520;28;20463;-68
2022/11/03 04:03:58;;;;;;;8.10;2.28;;;12.70;99.90;;;;;;5095721;28;20036;-69
2022/11/03 04:06:24;;;;;;;10.50;2.30;;;12.80;99.90;;;;;;5095344;28;20024;-68
2022/11/03 04:08:49;;;;;;;10.48;2.47;;;12.70;99.90;;;;;;5095120;28;20028;-68
2022/11/03 04:22:17;;;;;;;13.07;2.10;;;12.50;99.90;;;;;;5110472;28;20030;-68
2022/11/03 04:24:45;;;;;;;12.93;2.70;;;12.50;99.90;;;;;;5115900;28;20031;-69
2022/11/03 04:27:36;;;;;;;10.00;1.52;;;12.50;99.90;;;;;;5096645;28;20024;-68
2022/11/03 04:30:16;;;;;;;9.38;1.73;;;12.50;99.90;;;;;;5094578;28;20038;-68
2022/11/03 04:32:44;;;;;;;13.77;2.35;;;12.50;99.90;;;;;;5094118;28;20340;-69
2022/11/03 04:35:21;;;;;;;4.45;2.08;;;12.50;99.90;;;;;;5094849;28;20020;-68
2022/11/03 04:38:07;;;;;;;7.22;1.65;;;12.50;99.90;;;;;;5094908;28;20024;-69
2022/11/03 04:40:33;;;;;;;11.18;2.45;;;12.50;99.90;;;;;;5095080;28;20031;-68
2022/11/03 04:42:58;;;;;;;11.00;2.47;;;12.50;99.90;;;;;;5094656;28;20048;-69
2022/11/03 04:45:32;;;;;;;12.25;2.20;;;12.50;99.90;;;;;;5094654;28;20063;-69
2022/11/03 04:48:01;;;;;;;7.68;2.50;;;12.50;99.90;;;;;;5094088;28;20051;-68
2022/11/03 04:50:26;;;;;;;11.10;1.98;;;12.50;99.90;;;;;;5093515;28;20066;-69
2022/11/03 04:52:58;;;;;;;14.00;2.70;;;12.60;99.90;;;;;;5094127;28;20032;-68
2022/11/03 04:55:24;;;;;;;12.98;2.65;;;12.60;99.90;;;;;;5094414;28;20024;-68
2022/11/03 04:57:55;;;;;;;10.38;2.40;;;12.60;99.90;;;;;;5094428;28;20020;-68
2022/11/03 05:00:21;;;;;;;10.57;2.17;;;12.60;99.90;;;;;;5094025;28;20034;-68
2022/11/03 05:02:49;;;;;;;14.02;3.47;;;12.50;99.90;;;;;;5094218;28;20043;-68
2022/11/03 05:05:23;;;;;;;7.07;1.70;;;12.50;99.90;;;;;;5094254;28;20065;-68
2022/11/03 05:07:52;;;;;;;5.30;1.30;;;12.50;99.90;;;;;;5094470;28;20051;-68
2022/11/03 05:10:24;;;;;;;13.75;4.07;;;12.50;99.90;;;;;;5094314;28;20107;-68
2022/11/03 05:12:52;;;;;;;13.18;2.80;;;12.50;99.90;;;;;;5093852;28;20425;-68
2022/11/03 05:15:40;;;;;;;11.63;2.80;;;12.50;99.90;;;;;;5094468;28;20024;-68
2022/11/03 05:18:24;;;;;;;11.82;2.40;;;12.50;99.90;;;;;;5093887;28;20027;-68
2022/11/03 05:21:11;;;;;;;13.95;2.35;;;12.50;99.90;;;;;;5093905;28;20038;-68
2022/11/03 05:23:43;;;;;;;8.25;1.92;;;12.50;99.90;;;;;;5094012;28;20510;-67
2022/11/03 05:26:35;;;;;;;;;;;12.50;99.90;;;;;;5094047;28;20031;-68
2022/11/03 05:29:10;;;;;;;8.43;2.53;;;12.60;99.90;;;;;;5090864;28;19945;-69
2022/11/03 05:31:38;;;;;;;8.88;3.05;;;12.50;99.90;;;;;;5089412;28;20403;-69
2022/11/03 05:34:24;;;;;;;14.88;3.25;;;12.50;99.90;;;;;;5085191;28;20028;-69
2022/11/03 05:36:50;;;;;;;14.65;4.00;;;12.60;99.90;;;;;;5094253;28;20036;-70
2022/11/03 05:39:33;;;;;;;8.63;2.53;;;12.60;99.90;;;;;;5093149;28;20066;-68
2022/11/03 05:41:59;;;;;;;10.13;2.80;;;12.60;99.90;;;;;;5093256;28;20040;-69
2022/11/03 05:44:35;;;;;;;9.25;3.05;;;12.60;99.90;;;;;;5092383;28;20384;-68
2022/11/03 05:47:02;;;;;;;8.48;2.30;;;12.60;99.90;;;;;;5093173;28;20051;-68
2022/11/03 05:49:29;;;;;;;8.68;2.47;;;12.60;99.90;;;;;;5094013;28;20066;-68
2022/11/03 05:51:55;;;;;;;15.73;3.00;;;12.60;99.90;;;;;;5092016;28;20130;-68
2022/11/03 05:54:30;;;;;;;8.70;3.15;;;12.60;99.90;;;;;;5093490;28;20020;-68
2022/11/03 05:56:56;;;;;;;20.02;3.40;;;12.60;99.90;;;;;;5093256;28;20448;-68
2022/11/03 05:59:25;;;;;;;8.95;3.00;;;12.60;99.90;;;;;;5091760;28;20023;-69
2022/11/03 06:01:52;;;;;;;13.27;3.08;;;12.60;99.90;;;;;;5093078;28;20051;-68
2022/11/03 06:04:25;;;;;;;12.27;2.90;;;12.60;99.90;;;;;;5078287;28;20043;-69
2022/11/03 06:07:00;;;;;;;10.80;2.92;;;12.50;99.90;;;;;;5074496;28;20025;-68
2022/11/03 06:09:26;;;;;;;13.27;2.88;;;12.50;99.90;;;;;;5092397;28;20028;-69
2022/11/03 06:11:55;;;;;;;12.30;3.08;;;12.50;99.90;;;;;;5092883;28;20061;-68
2022/11/03 06:14:25;;;;;;;6.22;1.85;;;12.40;99.90;;;;;;5083906;28;20056;-68
2022/11/03 06:16:53;;;;;;;14.32;2.45;;;12.40;99.90;;;;;;5092330;28;20363;-69
2022/11/03 06:19:22;;;;;;;12.18;2.92;;;12.40;99.90;;;;;;5093001;28;20051;-69
2022/11/03 06:21:50;;;;;;;10.23;2.25;;;12.40;99.90;;;;;;5093678;28;20020;-68
2022/11/03 06:24:18;;;;;;;14.02;3.03;;;12.40;99.90;;;;;;5093226;28;20043;-68
2022/11/03 06:26:45;;;;;;;9.63;2.50;;;12.40;99.90;;;;;;5093631;28;20070;-69
2022/11/03 06:29:17;;;;;;;16.02;2.90;;;12.40;99.90;;;;;;5092284;28;20012;-68
2022/11/03 06:31:45;;;;;;;9.23;2.50;;;12.40;99.90;;;;;;5091652;28;20095;-68
2022/11/03 06:34:32;;;;;;;9.35;2.40;;;12.40;99.90;;;;;;5093563;28;20053;-69
2022/11/03 06:37:01;;;;;;;12.73;2.80;;;12.40;99.90;;;;;;5092469;28;20028;-68
2022/11/03 06:39:26;;;;;;;10.80;3.08;;;12.40;99.90;;;;;;5093034;28;20128;-68
2022/11/03 06:41:52;;;;;;;9.93;2.25;;;12.40;99.90;;;;;;5092910;28;20518;-69
2022/11/03 06:44:28;;;;;;;12.18;2.80;;;12.40;99.90;;;;;;5092794;28;20036;-69
2022/11/03 06:47:20;;;;;;;11.02;2.55;;;12.40;99.90;;;;;;5092845;28;20019;-69
2022/11/03 06:49:47;;;;;;;10.75;2.42;;;12.50;99.90;;;;;;5092495;28;20030;-68
2022/11/03 06:52:30;;;;;;;9.20;2.47;;;12.50;99.90;;;;;;5092402;28;20023;-68
2022/11/03 06:55:04;;;;;;;14.02;2.33;;;12.60;99.90;;;;;;5092654;28;20034;-69
2022/11/03 06:57:34;;;;;;;7.68;2.20;;;12.50;99.90;;;;;;5092880;28;20043;-68
2022/11/03 06:59:59;;;;;;;15.45;3.20;;;12.60;99.90;;;;;;5092523;28;20141;-68
2022/11/03 07:02:47;;;;;;;5.38;1.73;;;12.60;99.90;;;;;;5092099;28;20111;-68
2022/11/03 07:05:35;;;;;;;6.68;1.95;;;12.60;99.90;;;;;;5092322;28;20024;-68
2022/11/03 07:08:11;;;;;;;12.20;2.53;;;12.60;99.90;;;;;;5092216;28;20028;-68
2022/11/03 07:10:37;;;;;;;11.40;3.08;;;12.70;99.90;;;;;;5092326;28;20372;-68
2022/11/03 07:13:13;;;;;;;15.13;2.75;;;12.70;99.90;;;;;;5096748;28;20054;-68
2022/11/03 07:15:40;;;;;;;9.05;2.35;;;12.80;99.90;;;;;;5091850;28;20069;-68
2022/11/03 07:18:32;;;;;;;8.02;2.08;;;12.80;99.90;;;;;;5090393;28;20024;-69
2022/11/03 07:21:23;;;;;;;14.63;3.90;;;12.80;99.90;;;;;;5085655;28;20370;-68
2022/11/03 07:23:49;;;;;;;8.63;2.75;;;12.90;99.90;;;;;;5096400;28;20048;-69
2022/11/03 07:26:14;;;;;;;17.90;4.57;;;12.90;99.90;;;;;;5095092;28;20065;-68
2022/11/03 07:28:42;;;;;;;17.17;4.95;;;12.90;99.90;;;;;;5089393;28;20021;-68
2022/11/03 07:31:26;;;;;;;10.23;2.58;;;13.00;99.90;;;;;;5084592;28;20020;-69
2022/11/03 07:33:57;;;;;;;9.25;2.33;;;13.00;99.90;;;;;;5095572;28;20115;-69
2022/11/03 07:36:26;;;;;;;13.38;5.18;;;13.00;99.90;;;;;;5095186;28;20019;-67
2022/11/03 07:38:53;;;;;;;13.57;3.25;;;13.10;99.90;;;;;;5102390;28;20020;-68
2022/11/03 07:41:21;;;;;;;8.05;2.08;;;13.10;99.90;;;;;;5116211;27;20011;-68
2022/11/03 07:43:56;;;;;;;15.75;3.95;;;13.10;99.90;;;;;;5109826;28;20131;-68
2022/11/03 07:46:22;;;;;;;6.75;2.28;;;13.10;99.90;;;;;;5096458;28;20028;-68
2022/11/03 07:48:51;;;;;;;7.63;2.50;;;13.10;99.90;;;;;;5095849;28;20075;-68
2022/11/03 07:51:25;;;;;;;8.43;2.10;;;13.10;99.90;;;;;;5095968;28;20035;-69
2022/11/03 07:53:54;;;;;;;12.88;2.70;;;13.20;99.90;;;;;;5083034;28;20107;-68
2022/11/03 07:56:23;;;;;;;11.43;2.75;;;13.20;99.90;;;;;;5095501;28;20020;-68
2022/11/03 07:59:02;;;;;;;12.98;2.78;;;13.20;99.90;;;;;;5085539;28;20410;-68
2022/11/03 08:01:31;;;;;;;8.48;3.20;;;13.20;99.90;;;;;;5094755;28;20031;-68
2022/11/03 08:04:04;;;;;;;9.50;2.88;;;13.20;99.90;;;;;;5093699;28;20048;-68
2022/11/03 08:06:30;;;;;;;14.02;3.72;;;13.20;99.90;;;;;;5095135;28;20481;-67
2022/11/03 08:08:55;;;;;;;13.25;3.40;;;13.30;99.90;;;;;;5094938;28;20024;-68
2022/11/03 08:11:22;;;;;;;8.02;2.20;;;13.30;99.90;;;;;;5095259;28;20025;-67
2022/11/03 08:13:51;;;;;;;9.70;2.80;;;13.20;99.90;;;;;;5095919;28;20020;-70
2022/11/03 08:16:17;;;;;;;6.50;1.90;;;13.30;99.90;;;;;;5095307;28;20036;-68
2022/11/03 08:18:44;;;;;;;14.50;2.75;;;13.30;99.90;;;;;;5095897;28;20024;-68
2022/11/03 08:21:10;;;;;;;8.45;2.40;;;13.40;99.90;;;;;;5095509;28;20043;-69
2022/11/03 08:23:35;;;;;;;8.15;2.03;;;13.40;99.90;;;;;;5094604;28;20036;-69
2022/11/03 08:26:01;;;;;;;12.20;3.38;;;13.50;99.90;;;;;;5094616;28;20600;-68
2022/11/03 08:28:27;;;;;;;8.60;2.58;;;13.50;99.90;;;;;;5094150;28;20126;-69
2022/11/03 08:30:52;;;;;;;8.05;2.60;;;13.60;99.90;;;;;;5095291;28;20072;-68
2022/11/03 08:33:18;;;;;;;12.73;2.75;;;13.60;99.90;;;;;;5095020;28;20024;-69
2022/11/03 08:35:44;;;;;;;8.02;2.35;;;13.70;99.90;;;;;;5095229;28;20103;-69
2022/11/03 08:38:09;;;;;;;8.70;2.40;;;13.70;99.90;;;;;;5094808;28;20082;-69
2022/11/03 08:40:35;;;;;;;10.95;2.63;;;13.70;99.90;;;;;;5094896;28;20084;-68
2022/11/03 08:43:01;;;;;;;9.27;2.78;;;13.70;99.90;;;;;;5094732;28;20036;-69
2022/11/03 08:45:30;;;;;;;11.93;2.42;;;13.70;99.90;;;;;;5094322;28;20028;-69
2022/11/03 08:47:56;;;;;;;9.90;2.60;;;13.70;99.90;;;;;;5076422;28;20083;-69
2022/11/03 08:50:22;;;;;;;14.02;3.28;;;13.80;99.90;;;;;;5092653;28;20077;-69
2022/11/03 08:52:48;;;;;;;9.95;2.10;;;13.80;99.90;;;;;;5094696;28;20027;-68
2022/11/03 08:55:14;;;;;;;10.00;2.22;;;13.80;99.90;;;;;;5093922;28;20076;-68
2022/11/03 08:57:39;;;;;;;8.77;3.53;;;13.80;99.90;;;;;;5094110;28;20028;-69
2022/11/03 09:00:06;;;;;;;9.45;2.20;;;13.80;99.90;;;;;;5093698;28;20035;-69
2022/11/03 09:02:32;;;;;;;14.10;2.80;;;13.80;99.90;;;;;;5081448;28;20037;-69
2022/11/03 09:04:58;;;;;;;13.55;2.22;;;13.80;99.90;;;;;;5086140;28;20040;-68
2022/11/03 09:07:24;;;;;;;13.80;3.13;;;13.80;99.90;;;;;;5082794;28;20110;-69
2022/11/03 09:09:49;;;;;;;9.23;2.65;;;13.90;99.90;;;;;;5088292;28;20073;-68
2022/11/03 09:12:15;;;;;;;9.05;2.58;;;13.90;99.90;;;;;;5090704;28;20016;-69
2022/11/03 09:14:40;;;;;;;7.93;2.15;;;13.90;99.90;;;;;;5093750;28;20117;-68
2022/11/03 09:17:06;;;;;;;10.13;2.38;;;14.00;99.90;;;;;;5087569;28;20107;-68
2022/11/03 09:19:31;;;;;;;7.35;2.35;;;14.00;99.90;;;;;;5084901;28;20032;-68
2022/11/03 09:21:59;;;;;;;10.80;2.63;;;14.10;99.90;;;;;;5093880;28;20036;-68
2022/11/03 09:24:25;;;;;;;11.50;2.20;;;14.10;99.90;;;;;;5090530;28;20115;-67
2022/11/03 09:26:51;;;;;;;7.18;1.92;;;14.20;99.90;;;;;;5074229;28;20024;-68
2022/11/03 09:29:16;;;;;;;9.30;2.53;;;14.10;99.90;;;;;;5081199;28;20020;-68
2022/11/03 09:31:42;;;;;;;7.88;2.38;;;14.10;99.90;;;;;;5094038;28;20085;-68
2022/11/03 09:34:08;;;;;;;12.20;2.63;;;14.20;99.90;;;;;;5093683;28;20035;-68
2022/11/03 09:36:34;;;;;;;11.38;2.58;;;14.20;99.90;;;;;;5094228;28;20059;-69
2022/11/03 09:38:59;;;;;;;10.02;2.53;;;14.30;99.90;;;;;;5093838;28;20027;-69
2022/11/03 09:41:25;;;;;;;7.82;2.63;;;14.30;99.90;;;;;;5093984;28;20048;-68
2022/11/03 09:43:51;;;;;;;9.20;3.10;;;14.40;99.90;;;;;;5093898;28;20074;-69
2022/11/03 09:46:17;;;;;;;11.73;3.10;;;14.60;99.90;;;;;;5093327;28;20030;-69
2022/11/03 09:48:43;;;;;;;6.95;2.22;;;14.70;99.90;;;;;;5092197;28;20034;-69
2022/11/03 09:51:15;;;;;;;16.42;4.10;;;14.90;99.90;;;;;;5093769;28;20024;-69
2022/11/03 09:53:40;;;;;;;7.63;2.35;;;14.90;99.90;;;;;;5092488;28;20108;-69
2022/11/03 09:56:09;;;;;;;7.57;2.03;;;15.10;99.90;;;;;;5093678;28;20077;-69
2022/11/03 09:58:34;;;;;;;12.85;2.65;;;15.10;99.90;;;;;;5093058;28;20028;-69
2022/11/03 10:01:00;;;;;;;16.70;3.25;;;15.10;99.90;;;;;;5093293;28;20031;-68
2022/11/03 10:03:27;;;;;;;9.77;2.50;;;15.20;99.90;;;;;;5093770;28;20158;-68
2022/11/03 10:05:52;;;;;;;10.25;1.80;;;15.20;99.90;;;;;;5093047;28;20375;-68
2022/11/03 10:08:23;;;;;;;9.43;2.10;;;15.20;99.90;;;;;;5093886;28;20020;-69
2022/11/03 10:10:50;;;;;;;9.88;2.60;;;15.20;99.90;;;;;;5093547;28;20031;-68
2022/11/03 10:13:46;;;;;;;14.05;3.35;;;15.20;99.90;;;;;;5093418;28;20032;-68
2022/11/03 10:16:17;;;;;;;8.43;2.58;;;15.30;99.90;;;;;;5091399;28;20115;-67
2022/11/03 10:18:43;;;;;;;13.13;2.38;;;15.30;99.90;;;;;;5093285;28;20020;-68
2022/11/03 10:21:30;;;;;;;8.38;2.55;;;15.40;99.90;;;;;;5092913;28;20059;-68
2022/11/03 10:23:55;;;;;;;14.93;2.70;;;15.40;99.90;;;;;;5092748;28;20047;-69
2022/11/03 10:26:21;;;;;;;10.40;2.67;;;15.40;99.90;;;;;;5087423;28;20467;-68
2022/11/03 10:29:07;;;;;;;12.70;2.35;;;15.50;99.90;;;;;;5081165;28;20035;-69
2022/11/03 10:31:39;;;;;;;10.02;2.60;;;15.60;99.90;;;;;;5092659;28;20047;-68
2022/11/03 10:34:21;;;;;;;8.20;2.00;;;15.70;99.90;;;;;;5092827;28;20393;-68
2022/11/03 10:36:47;;;;;;;12.25;2.05;;;15.70;99.90;;;;;;5093088;28;20051;-68
2022/11/03 10:39:29;;;;;;;13.30;2.47;;;15.70;99.90;;;;;;5092177;28;20023;-67
2022/11/03 10:41:57;;;;;;;13.80;3.08;;;15.80;99.90;;;;;;5090065;28;20059;-68
2022/11/03 10:44:25;;;;;;;15.23;3.00;;;15.90;99.90;;;;;;5092851;28;20070;-68
2022/11/03 10:46:59;;;;;;;7.85;1.63;;;15.90;99.90;;;;;;5091840;28;20456;-68
2022/11/03 10:49:28;;;;;;;11.20;2.50;;;16.10;99.90;;;;;;5093152;28;20119;-68
2022/11/03 10:52:06;;;;;;;9.35;2.80;;;16.10;99.90;;;;;;5093129;28;20013;-68
2022/11/03 10:54:35;;;;;;;6.93;1.73;;;16.20;99.90;;;;;;5092985;28;20111;-68
2022/11/03 10:57:00;;;;;;;5.63;1.73;;;16.30;99.90;;;;;;5092702;28;20027;-68
2022/11/03 10:59:33;;;;;;;12.23;2.95;;;16.20;99.90;;;;;;5092930;28;20024;-68
2022/11/03 11:01:59;;;;;;;11.32;3.63;;;16.20;99.90;;;;;;5092693;28;20039;-69
2022/11/03 11:04:25;;;;;;;8.70;2.47;;;16.10;99.90;;;;;;5092929;28;20071;-69
2022/11/03 11:06:51;;;;;;;14.48;2.28;;;16.20;99.90;;;;;;5092756;28;20137;-69
2022/11/03 11:09:25;;;;;;;10.65;2.63;;;16.30;99.90;;;;;;5092821;28;20024;-69
2022/11/03 11:12:05;;;;;;;10.20;1.95;;;16.30;99.90;;;;;;5092462;28;20448;-69
2022/11/03 11:14:38;;;;;;;14.80;2.63;;;16.30;99.90;;;;;;5092755;28;20034;-68
2022/11/03 11:17:04;;;;;;;11.50;2.38;;;16.30;99.90;;;;;;5092786;28;20333;-69
2022/11/03 11:19:50;;;;;;;10.98;2.38;;;16.20;99.90;;;;;;5092456;28;20028;-69
2022/11/03 11:22:21;;;;;;;10.65;2.00;;;16.30;99.90;;;;;;5092258;28;20031;-69
2022/11/03 11:24:47;;;;;;;9.55;1.90;;;16.30;99.90;;;;;;5092945;28;20382;-69
2022/11/03 11:27:30;;;;;;;7.13;1.63;;;16.40;99.90;;;;;;5092818;28;20436;-69
2022/11/03 11:29:57;;;;;;;8.18;2.15;;;16.80;99.90;;;;;;5092198;28;20099;-69
2022/11/03 11:32:38;;;;;;;7.00;1.83;;;17.20;99.90;;;;;;5092729;28;20510;-69
2022/11/03 11:35:29;;;;;;;8.52;2.08;;;17.70;99.90;;;;;;5092427;28;20031;-69
2022/11/03 11:37:55;;;;;;;11.48;2.05;;;18.00;99.90;;;;;;5081889;28;20035;-69
2022/11/03 11:40:23;;;;;;;8.55;1.60;;;18.70;99.90;;;;;;5092556;28;20021;-69
2022/11/03 11:43:01;;;;;;;9.13;1.88;;;19.00;99.90;;;;;;5092529;28;20048;-70
2022/11/03 11:46:04;;;;;;;6.95;2.22;;;18.80;99.90;;;;;;5085504;28;20020;-69
2022/11/03 11:48:30;;;;;;;7.32;1.70;;;18.50;99.90;;;;;;5084352;28;20024;-70
2022/11/03 11:51:00;;;;;;;8.15;2.17;;;18.20;99.90;;;;;;5091965;28;20024;-68
2022/11/03 11:53:29;;;;;;;11.50;2.60;;;17.80;99.90;;;;;;5092226;28;20024;-69
2022/11/03 11:55:56;;;;;;;5.20;1.65;;;17.50;99.90;;;;;;5085015;28;20024;-69
2022/11/03 11:58:41;;;;;;;11.63;2.30;;;17.40;99.90;;;;;;5092339;28;20013;-69
2022/11/03 12:01:29;;;;;;;8.38;2.25;;;17.20;99.90;;;;;;5077418;28;20021;-69
2022/11/03 12:03:57;;;;;;;12.95;2.35;;;17.10;99.90;;;;;;5092510;28;20036;-69
2022/11/03 12:06:36;;;;;;;7.47;2.40;;;17.00;99.90;;;;;;5092050;28;20497;-69
2022/11/03 12:09:07;;;;;;;9.63;2.13;;;17.10;99.90;;;;;;5075385;28;20065;-68
2022/11/03 12:12:00;;;;;;;4.85;1.45;;;17.20;99.90;;;;;;5095957;28;20464;-69
2022/11/03 12:14:35;;;;;;;10.65;2.05;;;17.40;99.90;;;;;;5092754;28;20085;-69
2022/11/03 12:17:13;;;;;;;7.30;1.67;;;17.70;99.90;;;;;;5095461;28;20444;-68
2022/11/03 12:19:42;;;;;;;5.88;1.70;;;17.90;99.90;;;;;;5095282;28;20020;-68
2022/11/03 12:22:10;;;;;;;9.98;2.50;;;18.00;99.90;;;;;;5096478;28;20466;-69
2022/11/03 12:24:45;;;;;;;6.70;1.75;;;18.00;99.90;;;;;;5095691;28;20028;-68
2022/11/03 12:27:34;;;;;;;6.85;1.95;;;17.80;99.90;;;;;;5095682;28;20024;-68
2022/11/03 12:30:03;;;;;;;6.78;1.85;;;17.50;99.90;;;;;;5088695;28;20036;-68
2022/11/03 12:32:30;;;;;;;9.15;2.17;;;17.30;99.90;;;;;;5089253;28;20043;-69
2022/11/03 12:34:55;;;;;;;9.00;1.90;;;17.10;99.90;;;;;;5083512;28;20103;-69
2022/11/03 12:37:21;;;;;;;7.22;1.80;;;17.00;99.90;;;;;;5095298;28;20108;-69
2022/11/03 12:39:47;;;;;;;7.90;2.20;;;17.00;99.90;;;;;;5094888;28;20063;-69
2022/11/03 12:42:13;;;;;;;9.90;1.83;;;16.90;99.90;;;;;;5090410;28;20048;-69
2022/11/03 12:44:39;;;;;;;7.82;1.77;;;16.70;99.90;;;;;;5090921;28;20531;-68
2022/11/03 12:47:04;;;;;;;9.50;2.17;;;16.60;99.90;;;;;;5095045;28;20190;-69
2022/11/03 12:49:30;;;;;;;6.88;1.77;;;16.50;99.90;;;;;;5092275;28;20099;-69
2022/11/03 12:51:58;;;;;;;11.55;2.20;;;16.40;99.90;;;;;;5087939;28;20105;-68
2022/11/03 12:54:24;;;;;;;4.68;1.45;;;16.30;99.90;;;;;;5078319;28;20036;-68
2022/11/03 12:56:52;;;;;;;7.53;1.80;;;16.10;99.90;;;;;;5090693;28;20439;-70
2022/11/03 12:59:17;;;;;;;4.90;1.90;;;16.00;99.90;;;;;;5082823;28;20103;-68
2022/11/03 13:01:43;;;;;;;8.13;2.08;;;15.90;99.90;;;;;;5090977;28;20401;-69
2022/11/03 13:04:09;;;;;;;8.73;2.08;;;15.90;99.90;;;;;;5110557;28;20397;-69
2022/11/03 13:06:34;;;;;;;9.23;1.98;;;15.90;99.90;;;;;;5091947;28;20020;-69
2022/11/03 13:09:00;;;;;;;10.30;2.30;;;15.90;99.90;;;;;;5078323;28;20027;-69
2022/11/03 13:14:09;;;;;;;6.85;1.90;;;15.90;99.90;;;;;;5089811;28;20042;-70
2022/11/03 13:16:35;;;;;;;9.70;2.28;;;15.90;99.90;;;;;;5085313;28;20501;-68
2022/11/03 13:19:01;;;;;;;6.55;1.50;;;16.00;99.90;;;;;;5094557;28;20034;-68
2022/11/03 13:21:26;;;;;;;7.32;1.90;;;16.00;99.90;;;;;;5078946;28;20498;-68